createdAt,value
2017-03-05T00:01:03.947Z,19.72
2017-03-05T00:02:14.328Z,19.71
2017-03-05T00:03:24.689Z,19.71
2017-03-05T00:04:35.454Z,19.74
2017-03-05T00:05:46.520Z,19.72
2017-03-05T00:06:57.301Z,19.67
2017-03-05T00:08:07.642Z,19.7
2017-03-05T00:09:17.979Z,19.71
2017-03-05T00:10:28.720Z,19.75
2017-03-05T00:11:39.304Z,19.77
2017-03-05T00:12:50.060Z,19.77
2017-03-05T00:14:00.795Z,19.72
2017-03-05T00:15:11.150Z,19.81
2017-03-05T00:16:21.490Z,19.74
2017-03-05T00:17:31.713Z,19.71
2017-03-05T00:18:41.269Z,19.7
2017-03-05T00:19:51.695Z,19.74
2017-03-05T00:21:02.070Z,19.71
2017-03-05T00:22:12.427Z,19.66
2017-03-05T00:23:23.086Z,19.7
2017-03-05T00:24:33.464Z,19.66
2017-03-05T00:25:43.071Z,19.66
2017-03-05T00:26:53.801Z,19.74
2017-03-05T00:28:04.588Z,19.67
2017-03-05T00:29:15.644Z,19.72
2017-03-05T00:30:26.006Z,19.71
2017-03-05T00:31:36.793Z,19.66
2017-03-05T00:32:47.576Z,19.74
2017-03-05T00:33:58.335Z,19.66
2017-03-05T00:35:08.594Z,19.71
2017-03-05T00:36:18.975Z,19.67
2017-03-05T00:37:29.323Z,19.72
2017-03-05T00:38:39.278Z,19.66
2017-03-05T00:39:49.618Z,19.75
2017-03-05T00:40:59.833Z,19.72
2017-03-05T00:42:10.196Z,19.66
2017-03-05T00:43:20.927Z,19.7
2017-03-05T00:44:31.658Z,19.72
2017-03-05T00:45:42.632Z,19.66
2017-03-05T00:46:52.872Z,19.7
2017-03-05T00:48:02.845Z,19.78
2017-03-05T00:49:13.589Z,19.7
2017-03-05T00:50:24.331Z,19.72
2017-03-05T00:51:34.284Z,19.75
2017-03-05T00:52:45.289Z,19.72
2017-03-05T00:53:56.063Z,19.7
2017-03-05T00:55:06.825Z,19.71
2017-03-05T00:56:17.154Z,19.7
2017-03-05T00:57:27.897Z,19.71
2017-03-05T00:58:38.109Z,19.72
2017-03-05T00:59:48.853Z,19.7
2017-03-05T01:00:59.190Z,19.72
2017-03-05T01:02:09.945Z,19.66
2017-03-05T01:03:20.702Z,19.7
2017-03-05T01:04:31.698Z,19.66
2017-03-05T01:05:41.676Z,19.78
2017-03-05T01:06:52.439Z,19.78
2017-03-05T01:08:02.802Z,19.72
2017-03-05T01:09:13.541Z,19.71
2017-03-05T01:10:24.150Z,19.7
2017-03-05T01:11:34.134Z,19.67
2017-03-05T01:12:44.479Z,19.66
2017-03-05T01:13:54.859Z,19.7
2017-03-05T01:15:05.193Z,19.71
2017-03-05T01:16:15.399Z,19.77
2017-03-05T01:17:25.359Z,19.72
2017-03-05T01:18:36.096Z,19.66
2017-03-05T01:19:46.088Z,19.64
2017-03-05T01:20:56.815Z,19.72
2017-03-05T01:22:07.860Z,19.7
2017-03-05T01:23:18.220Z,19.7
2017-03-05T01:24:28.972Z,19.62
2017-03-05T01:25:38.925Z,19.72
2017-03-05T01:26:47.689Z,19.72
2017-03-05T01:27:58.387Z,19.7
2017-03-05T01:29:08.346Z,19.75
2017-03-05T01:30:18.291Z,19.75
2017-03-05T01:31:28.659Z,19.7
2017-03-05T01:32:39.008Z,19.7
2017-03-05T01:33:49.594Z,19.7
2017-03-05T01:34:59.565Z,19.72
2017-03-05T01:36:09.513Z,19.72
2017-03-05T01:37:19.919Z,19.72
2017-03-05T01:38:29.904Z,19.66
2017-03-05T01:39:40.543Z,19.7
2017-03-05T01:40:51.305Z,19.72
2017-03-05T01:42:00.876Z,19.7
2017-03-05T01:43:10.435Z,19.72
2017-03-05T01:44:20.783Z,19.7
2017-03-05T01:45:31.824Z,19.62
2017-03-05T01:46:42.633Z,19.71
2017-03-05T01:47:52.579Z,19.71
2017-03-05T01:49:03.331Z,19.72
2017-03-05T01:50:13.690Z,19.71
2017-03-05T01:51:24.747Z,19.72
2017-03-05T01:52:35.510Z,19.72
2017-03-05T01:53:46.094Z,19.67
2017-03-05T01:54:56.467Z,19.75
2017-03-05T01:56:06.422Z,19.74
2017-03-05T01:57:16.634Z,19.66
2017-03-05T01:58:26.195Z,19.67
2017-03-05T01:59:36.160Z,19.67
2017-03-05T02:00:46.924Z,19.75
2017-03-05T02:01:57.684Z,19.71
2017-03-05T02:03:08.294Z,19.67
2017-03-05T02:04:18.633Z,19.77
2017-03-05T02:05:28.980Z,19.64
2017-03-05T02:06:38.944Z,19.64
2017-03-05T02:07:49.318Z,19.77
2017-03-05T02:08:59.608Z,19.7
2017-03-05T02:10:10.330Z,19.66
2017-03-05T02:11:21.343Z,19.7
2017-03-05T02:12:31.683Z,19.7
2017-03-05T02:13:42.420Z,19.66
2017-03-05T02:14:52.666Z,19.67
2017-03-05T02:16:02.625Z,19.72
2017-03-05T02:17:12.967Z,19.71
2017-03-05T02:18:23.296Z,19.71
2017-03-05T02:19:34.048Z,19.72
2017-03-05T02:20:45.033Z,19.72
2017-03-05T02:21:54.583Z,19.72
2017-03-05T02:23:04.960Z,19.72
2017-03-05T02:24:14.935Z,19.75
2017-03-05T02:25:25.299Z,19.66
2017-03-05T02:26:36.355Z,19.71
2017-03-05T02:27:47.120Z,19.66
2017-03-05T02:28:57.462Z,19.66
2017-03-05T02:30:07.430Z,19.72
2017-03-05T02:31:18.183Z,19.71
2017-03-05T02:32:29.233Z,19.71
2017-03-05T02:33:39.614Z,19.74
2017-03-05T02:34:50.356Z,19.84
2017-03-05T02:36:00.308Z,19.72
2017-03-05T02:37:10.826Z,19.85
2017-03-05T02:38:21.845Z,19.71
2017-03-05T02:39:32.180Z,19.71
2017-03-05T02:40:42.916Z,19.72
2017-03-05T02:41:53.703Z,19.78
2017-03-05T02:43:04.052Z,19.7
2017-03-05T02:44:15.048Z,19.71
2017-03-05T02:45:25.022Z,19.67
2017-03-05T02:46:35.761Z,19.74
2017-03-05T02:47:46.139Z,19.7
2017-03-05T02:48:56.504Z,19.74
2017-03-05T02:50:07.141Z,19.84
2017-03-05T02:51:17.513Z,19.85
2017-03-05T02:52:27.460Z,19.7
2017-03-05T02:53:37.792Z,19.82
2017-03-05T02:54:48.702Z,19.74
2017-03-05T02:55:59.297Z,19.71
2017-03-05T02:57:09.664Z,19.81
2017-03-05T02:58:20.402Z,19.77
2017-03-05T02:59:30.375Z,19.79
2017-03-05T03:00:40.735Z,19.67
2017-03-05T03:01:51.383Z,19.77
2017-03-05T03:03:00.546Z,19.81
2017-03-05T03:04:10.897Z,19.81
2017-03-05T03:05:21.341Z,19.66
2017-03-05T03:06:31.719Z,19.74
2017-03-05T03:07:42.322Z,19.71
2017-03-05T03:08:52.680Z,19.7
2017-03-05T03:10:03.418Z,19.71
2017-03-05T03:11:14.151Z,19.72
2017-03-05T03:12:24.512Z,19.81
2017-03-05T03:13:35.101Z,19.67
2017-03-05T03:14:45.441Z,19.79
2017-03-05T03:15:55.796Z,19.81
2017-03-05T03:17:06.147Z,19.71
2017-03-05T03:18:16.090Z,19.77
2017-03-05T03:19:26.281Z,19.77
2017-03-05T03:20:37.054Z,19.72
2017-03-05T03:21:46.603Z,19.67
2017-03-05T03:22:57.379Z,19.75
2017-03-05T03:24:07.738Z,19.81
2017-03-05T03:25:18.377Z,19.78
2017-03-05T03:26:27.927Z,19.85
2017-03-05T03:27:38.692Z,19.74
2017-03-05T03:28:49.437Z,19.81
2017-03-05T03:30:00.161Z,19.81
2017-03-05T03:31:10.384Z,19.74
2017-03-05T03:32:21.220Z,19.78
2017-03-05T03:33:31.966Z,19.81
2017-03-05T03:34:42.708Z,19.75
2017-03-05T03:35:52.283Z,19.79
2017-03-05T03:37:02.107Z,19.81
2017-03-05T03:38:12.045Z,19.84
2017-03-05T03:39:22.793Z,19.84
2017-03-05T03:40:33.144Z,19.78
2017-03-05T03:41:43.085Z,19.78
2017-03-05T03:42:53.297Z,19.84
2017-03-05T03:44:03.273Z,19.84
2017-03-05T03:45:13.223Z,19.79
2017-03-05T03:46:23.211Z,19.84
2017-03-05T03:47:33.949Z,19.74
2017-03-05T03:48:44.205Z,19.82
2017-03-05T03:49:54.556Z,19.77
2017-03-05T03:51:05.280Z,19.85
2017-03-05T03:52:16.006Z,19.85
2017-03-05T03:53:26.401Z,19.78
2017-03-05T03:54:37.441Z,19.77
2017-03-05T03:55:47.790Z,19.78
2017-03-05T03:56:58.548Z,19.78
2017-03-05T03:58:08.880Z,19.81
2017-03-05T03:59:19.246Z,19.78
2017-03-05T04:00:29.904Z,19.77
2017-03-05T04:01:40.247Z,19.78
2017-03-05T04:02:50.989Z,19.79
2017-03-05T04:04:01.324Z,19.85
2017-03-05T04:05:10.868Z,19.87
2017-03-05T04:06:21.134Z,19.78
2017-03-05T04:07:31.866Z,19.87
2017-03-05T04:08:41.815Z,19.82
2017-03-05T04:09:51.774Z,19.87
2017-03-05T04:11:02.532Z,19.77
2017-03-05T04:12:13.195Z,19.85
2017-03-05T04:13:23.937Z,19.78
2017-03-05T04:14:34.670Z,19.85
2017-03-05T04:15:45.019Z,19.84
2017-03-05T04:16:55.370Z,19.85
2017-03-05T04:18:06.359Z,19.85
2017-03-05T04:19:16.699Z,19.77
2017-03-05T04:20:27.424Z,19.87
2017-03-05T04:21:38.164Z,19.82
2017-03-05T04:22:48.121Z,19.78
2017-03-05T04:23:59.097Z,19.78
2017-03-05T04:25:09.443Z,19.81
2017-03-05T04:26:19.790Z,19.78
2017-03-05T04:27:29.728Z,19.77
2017-03-05T04:28:40.067Z,19.79
2017-03-05T04:29:49.907Z,19.75
2017-03-05T04:31:00.260Z,19.82
2017-03-05T04:32:10.603Z,19.84
2017-03-05T04:33:21.351Z,19.75
2017-03-05T04:34:32.090Z,19.78
2017-03-05T04:35:42.329Z,19.84
2017-03-05T04:36:52.672Z,19.87
2017-03-05T04:38:02.619Z,19.75
2017-03-05T04:39:13.393Z,19.85
2017-03-05T04:40:23.373Z,19.79
2017-03-05T04:41:33.616Z,19.79
2017-03-05T04:42:43.574Z,19.75
2017-03-05T04:43:53.916Z,19.71
2017-03-05T04:45:03.499Z,19.78
2017-03-05T04:46:13.850Z,19.85
2017-03-05T04:47:23.702Z,19.77
2017-03-05T04:48:34.048Z,19.79
2017-03-05T04:49:44.796Z,19.74
2017-03-05T04:50:54.351Z,19.82
2017-03-05T04:52:04.308Z,19.77
2017-03-05T04:53:14.957Z,19.84
2017-03-05T04:54:25.712Z,19.77
2017-03-05T04:55:36.070Z,19.87
2017-03-05T04:56:46.835Z,19.9
2017-03-05T04:57:57.171Z,19.85
2017-03-05T04:59:08.204Z,19.85
2017-03-05T05:00:18.160Z,19.82
2017-03-05T05:01:27.715Z,19.78
2017-03-05T05:02:38.467Z,19.79
2017-03-05T05:03:48.417Z,19.84
2017-03-05T05:04:59.469Z,19.75
2017-03-05T05:06:09.401Z,19.81
2017-03-05T05:07:19.497Z,19.82
2017-03-05T05:08:30.243Z,19.74
2017-03-05T05:09:40.982Z,19.78
2017-03-05T05:10:52.038Z,19.72
2017-03-05T05:12:02.390Z,19.64
2017-03-05T05:13:13.149Z,19.77
2017-03-05T05:14:23.100Z,19.7
2017-03-05T05:15:33.456Z,19.74
2017-03-05T05:16:44.454Z,19.75
2017-03-05T05:17:55.196Z,19.74
2017-03-05T05:19:05.930Z,19.75
2017-03-05T05:20:16.298Z,19.66
2017-03-05T05:21:27.066Z,19.77
2017-03-05T05:22:37.743Z,19.81
2017-03-05T05:23:47.673Z,19.75
2017-03-05T05:24:57.618Z,19.84
2017-03-05T05:26:07.584Z,19.7
2017-03-05T05:27:17.542Z,19.7
2017-03-05T05:28:28.140Z,19.7
2017-03-05T05:29:38.483Z,19.81
2017-03-05T05:30:48.836Z,19.66
2017-03-05T05:31:59.213Z,19.7
2017-03-05T05:33:09.158Z,19.77
2017-03-05T05:34:19.811Z,19.78
2017-03-05T05:35:30.198Z,19.7
2017-03-05T05:36:40.569Z,19.63
2017-03-05T05:37:50.912Z,19.67
2017-03-05T05:39:00.876Z,19.66
2017-03-05T05:40:11.526Z,19.71
2017-03-05T05:41:21.872Z,19.67
2017-03-05T05:42:32.601Z,19.7
2017-03-05T05:43:43.347Z,19.72
2017-03-05T05:44:53.308Z,19.85
2017-03-05T05:46:04.317Z,19.71
2017-03-05T05:47:15.052Z,19.78
2017-03-05T05:48:25.404Z,19.71
2017-03-05T05:49:35.763Z,19.77
2017-03-05T05:50:45.727Z,19.71
2017-03-05T05:51:56.738Z,19.66
2017-03-05T05:53:07.100Z,19.71
2017-03-05T05:54:17.459Z,19.79
2017-03-05T05:55:28.236Z,19.71
2017-03-05T05:56:38.573Z,19.71
2017-03-05T05:57:49.177Z,19.72
2017-03-05T05:58:59.945Z,19.7
2017-03-05T06:00:10.694Z,19.7
2017-03-05T06:01:21.046Z,19.78
2017-03-05T06:02:30.991Z,19.67
2017-03-05T06:03:41.594Z,19.66
2017-03-05T06:04:51.961Z,19.66
2017-03-05T06:06:02.691Z,19.72
2017-03-05T06:07:13.050Z,19.75
2017-03-05T06:08:23.439Z,19.67
2017-03-05T06:09:34.073Z,19.77
2017-03-05T06:10:44.422Z,19.72
2017-03-05T06:11:54.780Z,19.7
2017-03-05T06:13:05.527Z,19.7
2017-03-05T06:14:15.110Z,19.77
2017-03-05T06:15:25.718Z,19.72
2017-03-05T06:16:35.663Z,19.66
2017-03-05T06:17:45.612Z,19.7
2017-03-05T06:18:56.361Z,19.67
2017-03-05T06:20:06.731Z,19.72
2017-03-05T06:21:16.982Z,19.77
2017-03-05T06:22:26.551Z,19.71
2017-03-05T06:23:36.502Z,19.72
2017-03-05T06:24:46.449Z,19.71
2017-03-05T06:25:56.788Z,19.7
2017-03-05T06:27:07.391Z,19.66
2017-03-05T06:28:18.185Z,19.71
2017-03-05T06:29:28.554Z,19.72
2017-03-05T06:30:39.293Z,19.7
2017-03-05T06:31:48.871Z,19.67
2017-03-05T06:32:59.132Z,19.66
2017-03-05T06:34:09.463Z,19.72
2017-03-05T06:35:20.210Z,19.7
2017-03-05T06:36:30.164Z,19.72
2017-03-05T06:37:40.513Z,19.77
2017-03-05T06:38:50.742Z,19.74
2017-03-05T06:40:00.720Z,19.66
2017-03-05T06:41:11.072Z,19.72
2017-03-05T06:42:21.450Z,19.7
2017-03-05T06:43:32.185Z,19.7
2017-03-05T06:44:42.435Z,19.77
2017-03-05T06:45:52.790Z,19.66
2017-03-05T06:47:02.744Z,19.72
2017-03-05T06:48:12.704Z,19.71
2017-03-05T06:49:23.043Z,19.67
2017-03-05T06:50:33.696Z,19.66
2017-03-05T06:51:43.655Z,19.72
2017-03-05T06:52:54.013Z,19.72
2017-03-05T06:54:03.972Z,19.78
2017-03-05T06:55:14.732Z,19.7
2017-03-05T06:56:25.780Z,19.7
2017-03-05T06:57:35.737Z,19.64
2017-03-05T06:58:46.083Z,19.72
2017-03-05T06:59:56.039Z,19.72
2017-03-05T07:01:06.804Z,19.72
2017-03-05T07:02:17.056Z,19.72
2017-03-05T07:03:27.821Z,19.74
2017-03-05T07:04:38.548Z,19.72
2017-03-05T07:05:48.551Z,19.7
2017-03-05T07:06:58.900Z,19.72
2017-03-05T07:08:09.559Z,19.64
2017-03-05T07:09:20.301Z,19.72
2017-03-05T07:10:30.653Z,19.71
2017-03-05T07:11:41.024Z,19.7
2017-03-05T07:12:50.975Z,19.71
2017-03-05T07:14:02.050Z,19.71
2017-03-05T07:15:12.018Z,19.72
2017-03-05T07:16:22.388Z,19.7
2017-03-05T07:17:32.382Z,19.72
2017-03-05T07:18:42.732Z,19.67
2017-03-05T07:19:53.770Z,19.72
2017-03-05T07:21:04.535Z,19.66
2017-03-05T07:22:15.303Z,19.72
2017-03-05T07:23:25.287Z,19.72
2017-03-05T07:24:35.623Z,19.66
2017-03-05T07:25:46.262Z,19.71
2017-03-05T07:26:56.619Z,19.66
2017-03-05T07:28:06.991Z,19.64
2017-03-05T07:29:17.357Z,19.72
2017-03-05T07:30:27.706Z,19.81
2017-03-05T07:31:38.742Z,19.7
2017-03-05T07:32:49.494Z,19.72
2017-03-05T07:33:59.863Z,19.78
2017-03-05T07:35:10.624Z,19.66
2017-03-05T07:36:21.385Z,19.74
2017-03-05T07:37:31.978Z,19.71
2017-03-05T07:38:42.330Z,19.77
2017-03-05T07:39:52.683Z,19.74
2017-03-05T07:41:03.447Z,19.77
2017-03-05T07:42:14.187Z,19.71
2017-03-05T07:43:25.222Z,19.7
2017-03-05T07:44:35.578Z,19.66
2017-03-05T07:45:45.938Z,19.82
2017-03-05T07:46:56.285Z,19.7
2017-03-05T07:48:06.650Z,19.79
2017-03-05T07:49:17.255Z,19.78
2017-03-05T07:50:27.230Z,19.72
2017-03-05T07:51:37.968Z,19.77
2017-03-05T07:52:48.346Z,19.66
2017-03-05T07:53:57.511Z,19.71
2017-03-05T07:55:08.169Z,19.74
2017-03-05T07:56:18.525Z,19.7
2017-03-05T07:57:28.884Z,19.72
2017-03-05T07:58:39.242Z,19.75
2017-03-05T07:59:49.584Z,19.85
2017-03-05T08:01:00.250Z,19.77
2017-03-05T08:02:10.589Z,19.78
2017-03-05T08:03:20.970Z,19.79
2017-03-05T08:04:31.732Z,19.72
2017-03-05T08:05:41.686Z,19.7
2017-03-05T08:06:52.705Z,19.71
2017-03-05T08:08:03.466Z,19.7
2017-03-05T08:09:14.282Z,19.81
2017-03-05T08:10:24.227Z,19.78
2017-03-05T08:11:34.193Z,19.7
2017-03-05T08:12:44.859Z,19.7
2017-03-05T08:13:54.822Z,19.74
2017-03-05T08:15:05.176Z,19.74
2017-03-05T08:16:15.113Z,19.7
2017-03-05T08:17:25.856Z,19.79
2017-03-05T08:18:36.506Z,19.78
2017-03-05T08:19:46.461Z,19.72
2017-03-05T08:20:57.223Z,19.72
2017-03-05T08:22:07.599Z,19.75
2017-03-05T08:23:17.965Z,19.7
2017-03-05T08:24:28.977Z,19.79
2017-03-05T08:25:39.729Z,19.79
2017-03-05T08:26:50.076Z,19.72
2017-03-05T08:28:00.436Z,19.78
2017-03-05T08:29:09.988Z,19.89
2017-03-05T08:30:20.609Z,19.77
2017-03-05T08:31:31.373Z,19.82
2017-03-05T08:32:41.315Z,19.78
2017-03-05T08:33:52.058Z,19.74
2017-03-05T08:35:02.091Z,19.84
2017-03-05T08:36:12.375Z,19.82
2017-03-05T08:37:21.984Z,19.79
2017-03-05T08:38:32.737Z,19.84
2017-03-05T08:39:43.530Z,19.74
2017-03-05T08:40:53.533Z,19.81
2017-03-05T08:42:04.167Z,19.85
2017-03-05T08:43:14.935Z,19.79
2017-03-05T08:44:25.277Z,19.77
2017-03-05T08:45:35.242Z,19.89
2017-03-05T08:46:45.591Z,19.81
2017-03-05T08:47:55.792Z,19.79
2017-03-05T08:49:05.753Z,19.78
2017-03-05T08:50:15.721Z,19.79
2017-03-05T08:51:26.490Z,19.81
2017-03-05T08:52:36.863Z,19.78
2017-03-05T08:53:47.475Z,19.78
2017-03-05T08:54:57.811Z,19.75
2017-03-05T08:56:07.790Z,19.74
2017-03-05T08:57:18.583Z,19.74
2017-03-05T08:58:28.934Z,19.79
2017-03-05T08:59:39.530Z,19.75
2017-03-05T09:00:49.898Z,19.87
2017-03-05T09:02:00.643Z,19.84
2017-03-05T09:03:10.982Z,19.75
2017-03-05T09:04:21.364Z,19.84
2017-03-05T09:05:32.419Z,19.78
2017-03-05T09:06:42.803Z,19.85
2017-03-05T09:07:53.180Z,19.82
2017-03-05T09:09:03.149Z,19.81
2017-03-05T09:10:13.146Z,19.82
2017-03-05T09:11:23.357Z,19.77
2017-03-05T09:12:33.341Z,19.82
2017-03-05T09:13:43.693Z,19.79
2017-03-05T09:14:53.645Z,19.77
2017-03-05T09:16:04.001Z,19.77
2017-03-05T09:17:14.631Z,19.81
2017-03-05T09:18:24.234Z,19.78
2017-03-05T09:19:34.586Z,19.77
2017-03-05T09:20:44.540Z,19.82
2017-03-05T09:21:55.283Z,19.84
2017-03-05T09:23:06.327Z,19.93
2017-03-05T09:24:16.704Z,19.82
2017-03-05T09:25:27.060Z,19.85
2017-03-05T09:26:37.434Z,19.82
2017-03-05T09:27:47.776Z,19.78
2017-03-05T09:28:58.846Z,19.92
2017-03-05T09:30:08.783Z,19.84
2017-03-05T09:31:19.155Z,19.85
2017-03-05T09:32:29.507Z,19.93
2017-03-05T09:33:40.263Z,19.87
2017-03-05T09:34:50.908Z,19.9
2017-03-05T09:36:01.277Z,19.87
2017-03-05T09:37:10.850Z,19.79
2017-03-05T09:38:21.245Z,19.87
2017-03-05T09:39:32.010Z,19.9
2017-03-05T09:40:42.268Z,19.81
2017-03-05T09:41:51.824Z,19.85
2017-03-05T09:43:01.776Z,19.89
2017-03-05T09:44:12.518Z,19.79
2017-03-05T09:45:23.296Z,19.87
2017-03-05T09:46:33.183Z,19.87
2017-03-05T09:47:43.539Z,19.87
2017-03-05T09:48:53.893Z,19.82
2017-03-05T09:50:04.247Z,19.85
2017-03-05T09:51:15.008Z,19.89
2017-03-05T09:52:24.022Z,19.87
2017-03-05T09:53:33.993Z,19.89
2017-03-05T09:54:44.751Z,19.87
2017-03-05T09:55:54.348Z,19.85
2017-03-05T09:57:05.113Z,19.85
2017-03-05T09:58:16.160Z,19.81
2017-03-05T09:59:26.503Z,19.84
2017-03-05T10:00:37.258Z,19.84
2017-03-05T10:01:48.029Z,19.89
2017-03-05T10:02:57.620Z,19.87
2017-03-05T10:04:08.618Z,19.96
2017-03-05T10:05:18.596Z,19.9
2017-03-05T10:06:28.546Z,19.87
2017-03-05T10:07:38.499Z,20
2017-03-05T10:08:48.083Z,19.94
2017-03-05T10:09:58.349Z,19.9
2017-03-05T10:11:09.121Z,19.89
2017-03-05T10:12:19.078Z,19.89
2017-03-05T10:13:29.436Z,19.92
2017-03-05T10:14:39.765Z,19.9
2017-03-05T10:15:50.847Z,19.89
2017-03-05T10:17:01.214Z,19.87
2017-03-05T10:18:11.178Z,19.84
2017-03-05T10:19:21.542Z,19.87
2017-03-05T10:20:32.271Z,19.92
2017-03-05T10:21:42.928Z,19.92
2017-03-05T10:22:52.875Z,19.9
2017-03-05T10:24:03.623Z,19.93
2017-03-05T10:25:14.373Z,19.93
2017-03-05T10:26:25.151Z,19.87
2017-03-05T10:27:36.137Z,19.89
2017-03-05T10:28:46.885Z,19.87
2017-03-05T10:29:57.261Z,19.94
2017-03-05T10:31:07.589Z,19.89
2017-03-05T10:32:17.141Z,19.9
2017-03-05T10:33:26.978Z,19.89
2017-03-05T10:34:37.710Z,19.96
2017-03-05T10:35:47.697Z,19.94
2017-03-05T10:36:58.470Z,19.94
2017-03-05T10:38:09.196Z,19.96
2017-03-05T10:39:19.831Z,19.93
2017-03-05T10:40:29.777Z,19.82
2017-03-05T10:41:40.156Z,19.97
2017-03-05T10:42:50.895Z,20
2017-03-05T10:44:00.832Z,19.87
2017-03-05T10:45:11.463Z,19.9
2017-03-05T10:46:21.433Z,19.94
2017-03-05T10:47:31.400Z,19.9
2017-03-05T10:48:41.738Z,19.9
2017-03-05T10:49:52.461Z,19.97
2017-03-05T10:51:02.690Z,19.97
2017-03-05T10:52:13.441Z,19.94
2017-03-05T10:53:23.775Z,19.96
2017-03-05T10:54:34.124Z,20
2017-03-05T10:55:44.057Z,20
2017-03-05T10:56:55.078Z,19.99
2017-03-05T10:58:05.863Z,19.96
2017-03-05T10:59:16.198Z,19.99
2017-03-05T11:00:26.566Z,19.96
2017-03-05T11:01:37.315Z,19.97
2017-03-05T11:02:47.509Z,20
2017-03-05T11:03:57.084Z,19.94
2017-03-05T11:05:07.443Z,20
2017-03-05T11:06:17.395Z,20
2017-03-05T11:07:28.129Z,19.94
2017-03-05T11:08:39.132Z,19.94
2017-03-05T11:09:50.256Z,20.02
2017-03-05T11:11:00.972Z,20.04
2017-03-05T11:12:10.515Z,20
2017-03-05T11:13:20.485Z,19.97
2017-03-05T11:14:31.136Z,19.96
2017-03-05T11:15:41.078Z,19.99
2017-03-05T11:16:51.401Z,20
2017-03-05T11:18:00.954Z,19.94
2017-03-05T11:19:11.701Z,20.02
2017-03-05T11:20:22.304Z,20
2017-03-05T11:21:31.856Z,19.97
2017-03-05T11:22:42.621Z,20.02
2017-03-05T11:23:52.969Z,20
2017-03-05T11:25:02.502Z,20.03
2017-03-05T11:26:12.289Z,19.97
2017-03-05T11:27:21.858Z,20.03
2017-03-05T11:28:31.787Z,19.99
2017-03-05T11:29:42.148Z,19.99
2017-03-05T11:30:52.476Z,20
2017-03-05T11:32:03.071Z,19.99
2017-03-05T11:33:13.431Z,20
2017-03-05T11:34:23.767Z,19.97
2017-03-05T11:35:34.529Z,19.97
2017-03-05T11:36:44.853Z,19.97
2017-03-05T11:37:55.871Z,19.99
2017-03-05T11:39:06.625Z,19.97
2017-03-05T11:40:17.365Z,20
2017-03-05T11:41:27.330Z,19.99
2017-03-05T11:42:38.081Z,20
2017-03-05T11:43:48.345Z,20.02
2017-03-05T11:44:58.319Z,19.94
2017-03-05T11:46:08.671Z,20
2017-03-05T11:47:19.032Z,20.04
2017-03-05T11:48:28.993Z,20
2017-03-05T11:49:39.640Z,20.04
2017-03-05T11:50:49.988Z,20.04
2017-03-05T11:52:00.744Z,20.04
2017-03-05T11:53:10.734Z,20.1
2017-03-05T11:54:21.513Z,20
2017-03-05T11:55:31.323Z,20.1
2017-03-05T11:56:41.687Z,20.04
2017-03-05T11:57:51.679Z,20.03
2017-03-05T11:59:02.018Z,20.04
2017-03-05T12:00:12.809Z,20.04
2017-03-05T12:01:23.465Z,20.03
2017-03-05T12:02:33.832Z,20
2017-03-05T12:03:44.593Z,20.08
2017-03-05T12:04:55.349Z,20.02
2017-03-05T12:06:05.740Z,20
2017-03-05T12:07:16.838Z,20.04
2017-03-05T12:08:27.600Z,19.99
2017-03-05T12:09:37.567Z,20.11
2017-03-05T12:10:47.918Z,20.08
2017-03-05T12:11:58.287Z,19.96
2017-03-05T12:13:08.937Z,20
2017-03-05T12:14:19.714Z,19.99
2017-03-05T12:15:30.481Z,19.96
2017-03-05T12:16:41.261Z,20.03
2017-03-05T12:17:52.023Z,20.04
2017-03-05T12:19:03.036Z,19.99
2017-03-05T12:20:13.415Z,20.04
2017-03-05T12:21:23.763Z,20
2017-03-05T12:22:34.140Z,19.99
2017-03-05T12:23:44.913Z,20.1
2017-03-05T12:24:55.582Z,19.97
2017-03-05T12:26:06.037Z,20.07
2017-03-05T12:27:16.388Z,20.07
2017-03-05T12:28:27.122Z,20.07
2017-03-05T12:29:37.480Z,19.94
2017-03-05T12:30:47.740Z,20
2017-03-05T12:31:58.801Z,20.04
2017-03-05T12:33:09.205Z,20.08
2017-03-05T12:34:19.572Z,20.08
2017-03-05T12:35:30.338Z,20.03
2017-03-05T12:36:40.554Z,19.96
2017-03-05T12:37:50.951Z,20.03
2017-03-05T12:39:00.920Z,20
2017-03-05T12:40:11.669Z,20.03
2017-03-05T12:41:22.037Z,20.07
2017-03-05T12:42:32.740Z,20.1
2017-03-05T12:43:42.738Z,20.1
2017-03-05T12:44:53.105Z,19.94
2017-03-05T12:46:03.075Z,19.94
2017-03-05T12:47:13.833Z,20.03
2017-03-05T12:48:24.432Z,19.99
2017-03-05T12:49:34.810Z,20.07
2017-03-05T12:50:45.568Z,20
2017-03-05T12:51:55.917Z,20.11
2017-03-05T12:53:06.676Z,20.03
2017-03-05T12:54:17.295Z,20.08
2017-03-05T12:55:27.654Z,20
2017-03-05T12:56:37.198Z,20.02
2017-03-05T12:57:47.954Z,20.02
2017-03-05T12:58:58.317Z,20.02
2017-03-05T13:00:08.529Z,20.04
2017-03-05T13:01:18.540Z,20.03
2017-03-05T13:02:29.312Z,20.03
2017-03-05T13:03:39.694Z,20.04
2017-03-05T13:04:50.052Z,20
2017-03-05T13:06:01.121Z,20.08
2017-03-05T13:07:11.895Z,20
2017-03-05T13:08:21.879Z,20.04
2017-03-05T13:09:32.660Z,20.03
2017-03-05T13:10:42.625Z,20.1
2017-03-05T13:11:52.918Z,20.04
2017-03-05T13:13:02.901Z,20
2017-03-05T13:14:13.673Z,20
2017-03-05T13:15:24.028Z,20.03
2017-03-05T13:16:34.800Z,20
2017-03-05T13:17:45.416Z,20
2017-03-05T13:18:56.164Z,20.04
2017-03-05T13:20:05.768Z,20.08
2017-03-05T13:21:16.517Z,19.94
2017-03-05T13:22:27.306Z,20.04
2017-03-05T13:23:37.977Z,20.1
2017-03-05T13:24:48.755Z,20.1
2017-03-05T13:25:59.543Z,20.11
2017-03-05T13:27:09.924Z,20.08
2017-03-05T13:28:19.889Z,20.04
2017-03-05T13:29:30.572Z,20.11
2017-03-05T13:30:40.957Z,20.11
2017-03-05T13:31:51.321Z,20.08
2017-03-05T13:33:01.694Z,20.1
2017-03-05T13:34:12.054Z,20.11
2017-03-05T13:35:23.126Z,20.04
2017-03-05T13:36:33.923Z,20.08
2017-03-05T13:37:44.282Z,20.04
2017-03-05T13:38:54.624Z,20.03
2017-03-05T13:40:05.407Z,20.12
2017-03-05T13:41:16.445Z,20.03
2017-03-05T13:42:26.834Z,20.11
2017-03-05T13:43:37.210Z,20.07
2017-03-05T13:44:47.983Z,20.1
2017-03-05T13:45:58.756Z,20.1
2017-03-05T13:47:09.819Z,20.08
2017-03-05T13:48:20.197Z,20.14
2017-03-05T13:49:31.016Z,20.14
2017-03-05T13:50:40.991Z,20.12
2017-03-05T13:51:51.390Z,20.14
2017-03-05T13:53:06.698Z,20.08
2017-03-05T13:54:17.476Z,20.1
2017-03-05T13:55:27.418Z,20.11
2017-03-05T13:56:37.754Z,20.17
2017-03-05T13:57:48.121Z,20.12
2017-03-05T13:58:58.299Z,20.12
2017-03-05T14:00:07.880Z,20.08
2017-03-05T14:01:17.439Z,20.14
2017-03-05T14:02:27.404Z,20.12
2017-03-05T14:03:37.748Z,20.12
2017-03-05T14:04:48.357Z,20.08
2017-03-05T14:05:58.306Z,20.12
2017-03-05T14:07:08.280Z,20.11
2017-03-05T14:08:18.649Z,20.08
2017-03-05T14:09:28.635Z,20.11
2017-03-05T14:10:39.242Z,20.14
2017-03-05T14:11:49.589Z,20.14
2017-03-05T14:12:59.949Z,20.1
2017-03-05T14:14:10.308Z,20.14
2017-03-05T14:15:21.073Z,20.14
2017-03-05T14:16:32.165Z,20.1
2017-03-05T14:17:42.968Z,20.02
2017-03-05T14:18:53.328Z,20.1
2017-03-05T14:20:03.680Z,20.15
2017-03-05T14:21:13.621Z,20.11
2017-03-05T14:22:23.487Z,20.11
2017-03-05T14:23:34.212Z,20.17
2017-03-05T14:24:44.569Z,20.11
2017-03-05T14:25:55.419Z,20.1
2017-03-05T14:27:06.192Z,20.11
2017-03-05T14:28:17.260Z,20.11
2017-03-05T14:29:27.629Z,20.07
2017-03-05T14:30:38.430Z,20.14
2017-03-05T14:31:48.389Z,20.1
2017-03-05T14:32:58.786Z,20.12
2017-03-05T14:34:09.789Z,20.17
2017-03-05T14:35:20.130Z,20.12
2017-03-05T14:36:30.505Z,20.11
2017-03-05T14:37:40.866Z,20.11
2017-03-05T14:38:50.810Z,20.17
2017-03-05T14:40:01.785Z,20.12
2017-03-05T14:41:12.131Z,20.14
2017-03-05T14:42:22.486Z,20.19
2017-03-05T14:43:33.271Z,20.18
2017-03-05T14:44:44.051Z,20.14
2017-03-05T14:45:54.709Z,20.14
2017-03-05T14:47:05.543Z,20.14
2017-03-05T14:48:15.906Z,20.11
2017-03-05T14:49:26.302Z,20.14
2017-03-05T14:50:37.079Z,20.12
2017-03-05T14:51:47.362Z,20.14
2017-03-05T14:52:57.718Z,20.11
2017-03-05T14:54:08.467Z,20.12
2017-03-05T14:55:18.847Z,20.1
2017-03-05T14:56:29.616Z,20.17
2017-03-05T14:57:40.307Z,20.19
2017-03-05T14:58:51.081Z,20.12
2017-03-05T15:00:01.854Z,20.18
2017-03-05T15:01:12.258Z,20.14
2017-03-05T15:02:23.053Z,20.12
2017-03-05T15:03:34.048Z,20.11
2017-03-05T15:04:44.789Z,20.14
2017-03-05T15:05:54.782Z,20.14
2017-03-05T15:07:05.572Z,20.15
2017-03-05T15:08:16.336Z,20.11
2017-03-05T15:09:27.351Z,20.11
2017-03-05T15:10:38.124Z,20.14
2017-03-05T15:11:48.885Z,20.11
2017-03-05T15:12:59.653Z,20.14
2017-03-05T15:14:10.424Z,20.11